sensor_id;sensor_type;location;lat;lon;timestamp;P1;durP1;ratioP1;P2;durP2;ratioP2
313;SDS011;143;51.634;7.112;2023-06-05T12:43:40;4.20;;;2.80;;
313;SDS011;143;51.634;7.112;2023-06-05T12:46:06;6.17;;;3.10;;
313;SDS011;143;51.634;7.112;2023-06-05T12:48:39;6.47;;;2.90;;
313;SDS011;143;51.634;7.112;2023-06-05T12:51:05;5.53;;;2.97;;
313;SDS011;143;51.634;7.112;2023-06-05T12:53:31;5.53;;;2.50;;
313;SDS011;143;51.634;7.112;2023-06-05T12:55:56;4.60;;;2.90;;
313;SDS011;143;51.634;7.112;2023-06-05T12:58:22;8.57;;;2.87;;
313;SDS011;143;51.634;7.112;2023-06-05T13:00:48;3.77;;;2.90;;
313;SDS011;143;51.634;7.112;2023-06-05T13:03:13;9.63;;;2.83;;
313;SDS011;143;51.634;7.112;2023-06-05T13:05:39;5.10;;;3.10;;
313;SDS011;143;51.634;7.112;2023-06-05T13:08:05;7.17;;;3.30;;
313;SDS011;143;51.634;7.112;2023-06-05T13:10:31;7.27;;;3.30;;
313;SDS011;143;51.634;7.112;2023-06-05T13:12:57;6.07;;;3.30;;
313;SDS011;143;51.634;7.112;2023-06-05T13:15:22;6.37;;;3.30;;
313;SDS011;143;51.634;7.112;2023-06-05T13:17:48;4.80;;;3.07;;
313;SDS011;143;51.634;7.112;2023-06-05T13:20:14;4.57;;;2.60;;
313;SDS011;143;51.634;7.112;2023-06-05T13:22:40;6.43;;;3.73;;
313;SDS011;143;51.634;7.112;2023-06-05T13:25:07;5.10;;;3.40;;
313;SDS011;143;51.634;7.112;2023-06-05T13:27:33;5.27;;;3.03;;
313;SDS011;143;51.634;7.112;2023-06-05T13:29:59;10.57;;;3.10;;
313;SDS011;143;51.634;7.112;2023-06-05T13:32:25;6.87;;;3.03;;
313;SDS011;143;51.634;7.112;2023-06-05T13:34:51;9.07;;;3.27;;
313;SDS011;143;51.634;7.112;2023-06-05T13:37:18;4.40;;;3.10;;
313;SDS011;143;51.634;7.112;2023-06-05T13:39:45;9.57;;;3.47;;
313;SDS011;143;51.634;7.112;2023-06-05T13:42:11;5.13;;;2.63;;
313;SDS011;143;51.634;7.112;2023-06-05T13:44:37;11.53;;;3.10;;
313;SDS011;143;51.634;7.112;2023-06-05T13:47:03;7.17;;;3.00;;
313;SDS011;143;51.634;7.112;2023-06-05T13:49:29;4.13;;;2.93;;
313;SDS011;143;51.634;7.112;2023-06-05T13:51:56;5.83;;;2.47;;
313;SDS011;143;51.634;7.112;2023-06-05T13:54:21;9.93;;;3.60;;
313;SDS011;143;51.634;7.112;2023-06-05T13:56:47;4.80;;;3.27;;
313;SDS011;143;51.634;7.112;2023-06-05T13:59:13;5.57;;;2.90;;
313;SDS011;143;51.634;7.112;2023-06-05T14:01:39;4.70;;;2.60;;
313;SDS011;143;51.634;7.112;2023-06-05T14:04:04;4.63;;;2.80;;
313;SDS011;143;51.634;7.112;2023-06-05T14:06:30;3.23;;;2.40;;
313;SDS011;143;51.634;7.112;2023-06-05T14:08:56;4.30;;;2.30;;
313;SDS011;143;51.634;7.112;2023-06-05T14:11:22;7.93;;;3.40;;
313;SDS011;143;51.634;7.112;2023-06-05T14:13:47;10.60;;;3.17;;
313;SDS011;143;51.634;7.112;2023-06-05T14:16:13;6.73;;;2.93;;
313;SDS011;143;51.634;7.112;2023-06-05T14:18:39;7.20;;;2.90;;
313;SDS011;143;51.634;7.112;2023-06-05T14:21:04;5.47;;;2.97;;
313;SDS011;143;51.634;7.112;2023-06-05T14:23:30;7.30;;;2.70;;
313;SDS011;143;51.634;7.112;2023-06-05T14:25:56;5.07;;;2.33;;
313;SDS011;143;51.634;7.112;2023-06-05T14:28:22;3.80;;;2.80;;
313;SDS011;143;51.634;7.112;2023-06-05T14:30:48;6.30;;;2.90;;
313;SDS011;143;51.634;7.112;2023-06-05T14:33:14;5.83;;;2.70;;
313;SDS011;143;51.634;7.112;2023-06-05T14:35:41;4.83;;;2.77;;
313;SDS011;143;51.634;7.112;2023-06-05T14:38:07;4.53;;;2.23;;
313;SDS011;143;51.634;7.112;2023-06-05T14:40:37;6.23;;;2.50;;
313;SDS011;143;51.634;7.112;2023-06-05T14:43:03;6.57;;;2.87;;
313;SDS011;143;51.634;7.112;2023-06-05T14:45:29;5.17;;;2.60;;
313;SDS011;143;51.634;7.112;2023-06-05T14:47:55;7.47;;;3.37;;
313;SDS011;143;51.634;7.112;2023-06-05T14:50:20;4.53;;;2.40;;
313;SDS011;143;51.634;7.112;2023-06-05T14:52:46;3.90;;;2.83;;
313;SDS011;143;51.634;7.112;2023-06-05T14:55:12;3.50;;;2.50;;
313;SDS011;143;51.634;7.112;2023-06-05T14:57:37;6.47;;;2.90;;
313;SDS011;143;51.634;7.112;2023-06-05T15:00:04;4.20;;;2.50;;
313;SDS011;143;51.634;7.112;2023-06-05T15:02:30;3.80;;;2.40;;
313;SDS011;143;51.634;7.112;2023-06-05T15:04:56;4.40;;;2.80;;
313;SDS011;143;51.634;7.112;2023-06-05T15:07:25;6.20;;;3.10;;
313;SDS011;143;51.634;7.112;2023-06-05T15:09:59;3.20;;;2.23;;
313;SDS011;143;51.634;7.112;2023-06-05T15:12:24;5.30;;;2.37;;
313;SDS011;143;51.634;7.112;2023-06-05T15:14:50;11.47;;;3.17;;
313;SDS011;143;51.634;7.112;2023-06-05T15:17:16;5.60;;;2.20;;
313;SDS011;143;51.634;7.112;2023-06-05T15:19:42;5.80;;;2.60;;
313;SDS011;143;51.634;7.112;2023-06-05T15:22:10;2.80;;;2.10;;
313;SDS011;143;51.634;7.112;2023-06-05T15:24:35;6.43;;;2.93;;
313;SDS011;143;51.634;7.112;2023-06-05T15:27:01;8.30;;;2.73;;
313;SDS011;143;51.634;7.112;2023-06-05T15:29:28;11.37;;;2.93;;
313;SDS011;143;51.634;7.112;2023-06-05T15:31:53;3.50;;;2.60;;
313;SDS011;143;51.634;7.112;2023-06-05T15:34:19;4.27;;;2.67;;
313;SDS011;143;51.634;7.112;2023-06-05T15:36:45;4.60;;;2.60;;
313;SDS011;143;51.634;7.112;2023-06-05T15:39:11;7.20;;;3.40;;
313;SDS011;143;51.634;7.112;2023-06-05T15:41:38;6.03;;;2.17;;
313;SDS011;143;51.634;7.112;2023-06-05T15:44:04;5.53;;;2.80;;
313;SDS011;143;51.634;7.112;2023-06-05T15:46:29;6.17;;;3.60;;
313;SDS011;143;51.634;7.112;2023-06-05T15:48:55;3.83;;;2.27;;
313;SDS011;143;51.634;7.112;2023-06-05T15:51:21;5.00;;;2.20;;
313;SDS011;143;51.634;7.112;2023-06-05T15:53:46;3.30;;;2.37;;
313;SDS011;143;51.634;7.112;2023-06-05T15:56:12;5.40;;;2.60;;
313;SDS011;143;51.634;7.112;2023-06-05T15:58:38;3.57;;;2.10;;
313;SDS011;143;51.634;7.112;2023-06-05T16:01:04;9.00;;;2.23;;
313;SDS011;143;51.634;7.112;2023-06-05T16:03:30;6.30;;;2.47;;
313;SDS011;143;51.634;7.112;2023-06-05T16:05:55;4.57;;;3.07;;
313;SDS011;143;51.634;7.112;2023-06-05T16:08:21;14.10;;;3.27;;
313;SDS011;143;51.634;7.112;2023-06-05T16:10:47;2.90;;;2.23;;
313;SDS011;143;51.634;7.112;2023-06-05T16:13:13;4.07;;;2.70;;
313;SDS011;143;51.634;7.112;2023-06-05T16:15:41;5.77;;;3.47;;
313;SDS011;143;51.634;7.112;2023-06-05T16:18:07;4.40;;;2.73;;
313;SDS011;143;51.634;7.112;2023-06-05T16:20:33;3.27;;;2.40;;
313;SDS011;143;51.634;7.112;2023-06-05T16:22:59;6.17;;;3.03;;
313;SDS011;143;51.634;7.112;2023-06-05T16:25:24;6.00;;;2.40;;
313;SDS011;143;51.634;7.112;2023-06-05T16:27:50;4.80;;;2.33;;
313;SDS011;143;51.634;7.112;2023-06-05T16:30:16;6.23;;;2.30;;
313;SDS011;143;51.634;7.112;2023-06-05T16:32:42;4.97;;;2.20;;
313;SDS011;143;51.634;7.112;2023-06-05T16:35:07;4.17;;;2.60;;
313;SDS011;143;51.634;7.112;2023-06-05T16:37:34;5.40;;;2.70;;
313;SDS011;143;51.634;7.112;2023-06-05T16:39:59;5.60;;;2.47;;
313;SDS011;143;51.634;7.112;2023-06-05T16:42:25;3.27;;;2.50;;
313;SDS011;143;51.634;7.112;2023-06-05T16:44:51;4.30;;;2.00;;
313;SDS011;143;51.634;7.112;2023-06-05T16:47:17;7.23;;;2.77;;
313;SDS011;143;51.634;7.112;2023-06-05T16:49:43;7.83;;;2.60;;
313;SDS011;143;51.634;7.112;2023-06-05T16:52:09;5.07;;;2.40;;
313;SDS011;143;51.634;7.112;2023-06-05T16:54:35;7.17;;;2.60;;
313;SDS011;143;51.634;7.112;2023-06-05T16:57:00;7.40;;;2.60;;
313;SDS011;143;51.634;7.112;2023-06-05T16:59:27;5.70;;;2.93;;
313;SDS011;143;51.634;7.112;2023-06-05T17:01:53;3.83;;;2.40;;
313;SDS011;143;51.634;7.112;2023-06-05T17:04:19;6.80;;;2.50;;
313;SDS011;143;51.634;7.112;2023-06-05T17:06:45;5.20;;;2.20;;
313;SDS011;143;51.634;7.112;2023-06-05T17:09:11;4.07;;;2.27;;
313;SDS011;143;51.634;7.112;2023-06-05T17:11:37;4.80;;;2.47;;
313;SDS011;143;51.634;7.112;2023-06-05T17:14:03;6.23;;;2.50;;
313;SDS011;143;51.634;7.112;2023-06-05T17:16:29;4.07;;;2.30;;
313;SDS011;143;51.634;7.112;2023-06-05T17:18:54;4.63;;;2.03;;
313;SDS011;143;51.634;7.112;2023-06-05T17:21:20;6.00;;;2.87;;
313;SDS011;143;51.634;7.112;2023-06-05T17:23:46;3.20;;;1.70;;
313;SDS011;143;51.634;7.112;2023-06-05T17:26:13;5.17;;;2.30;;
313;SDS011;143;51.634;7.112;2023-06-05T17:28:38;5.00;;;2.33;;
313;SDS011;143;51.634;7.112;2023-06-05T17:31:04;5.13;;;2.17;;
313;SDS011;143;51.634;7.112;2023-06-05T17:33:30;4.87;;;2.37;;
313;SDS011;143;51.634;7.112;2023-06-05T17:35:56;3.60;;;2.37;;
313;SDS011;143;51.634;7.112;2023-06-05T17:38:22;7.43;;;2.50;;
313;SDS011;143;51.634;7.112;2023-06-05T17:40:48;8.73;;;2.30;;
313;SDS011;143;51.634;7.112;2023-06-05T17:43:13;6.00;;;2.47;;
313;SDS011;143;51.634;7.112;2023-06-05T17:45:40;4.67;;;2.40;;
313;SDS011;143;51.634;7.112;2023-06-05T17:48:05;3.53;;;2.53;;
313;SDS011;143;51.634;7.112;2023-06-05T17:50:32;4.40;;;2.33;;
313;SDS011;143;51.634;7.112;2023-06-05T17:52:58;3.30;;;2.13;;
313;SDS011;143;51.634;7.112;2023-06-05T17:55:24;2.70;;;1.90;;
313;SDS011;143;51.634;7.112;2023-06-05T17:57:50;3.40;;;2.20;;
313;SDS011;143;51.634;7.112;2023-06-05T18:00:19;3.10;;;1.93;;
313;SDS011;143;51.634;7.112;2023-06-05T18:02:46;2.77;;;2.50;;
313;SDS011;143;51.634;7.112;2023-06-05T18:05:12;8.10;;;2.07;;
313;SDS011;143;51.634;7.112;2023-06-05T18:07:37;4.00;;;2.03;;
313;SDS011;143;51.634;7.112;2023-06-05T18:10:03;7.27;;;2.10;;
313;SDS011;143;51.634;7.112;2023-06-05T18:12:29;3.47;;;2.20;;
313;SDS011;143;51.634;7.112;2023-06-05T18:14:55;5.90;;;2.63;;
313;SDS011;143;51.634;7.112;2023-06-05T18:17:21;6.30;;;2.40;;
313;SDS011;143;51.634;7.112;2023-06-05T18:19:51;3.23;;;2.40;;
313;SDS011;143;51.634;7.112;2023-06-05T18:22:17;6.00;;;2.33;;
313;SDS011;143;51.634;7.112;2023-06-05T18:24:43;5.27;;;2.50;;
313;SDS011;143;51.634;7.112;2023-06-05T18:27:08;4.23;;;2.50;;
313;SDS011;143;51.634;7.112;2023-06-05T18:29:34;3.13;;;2.00;;
313;SDS011;143;51.634;7.112;2023-06-05T18:32:00;3.20;;;2.00;;
313;SDS011;143;51.634;7.112;2023-06-05T18:34:26;4.03;;;2.00;;
313;SDS011;143;51.634;7.112;2023-06-05T18:36:52;4.00;;;2.43;;
313;SDS011;143;51.634;7.112;2023-06-05T18:39:18;5.40;;;2.23;;
313;SDS011;143;51.634;7.112;2023-06-05T18:41:44;2.97;;;1.83;;
313;SDS011;143;51.634;7.112;2023-06-05T18:44:10;2.87;;;2.07;;
313;SDS011;143;51.634;7.112;2023-06-05T18:46:37;3.80;;;1.93;;
313;SDS011;143;51.634;7.112;2023-06-05T18:49:03;5.93;;;2.20;;
313;SDS011;143;51.634;7.112;2023-06-05T18:51:29;10.63;;;2.30;;
313;SDS011;143;51.634;7.112;2023-06-05T18:53:55;2.83;;;1.83;;
313;SDS011;143;51.634;7.112;2023-06-05T18:56:20;3.13;;;2.10;;
313;SDS011;143;51.634;7.112;2023-06-05T18:58:46;4.07;;;2.30;;
313;SDS011;143;51.634;7.112;2023-06-05T19:01:12;4.77;;;2.30;;
313;SDS011;143;51.634;7.112;2023-06-05T19:03:38;6.90;;;2.57;;
313;SDS011;143;51.634;7.112;2023-06-05T19:06:04;6.33;;;2.40;;
313;SDS011;143;51.634;7.112;2023-06-05T19:08:30;3.30;;;1.77;;
313;SDS011;143;51.634;7.112;2023-06-05T19:10:56;8.07;;;2.67;;
313;SDS011;143;51.634;7.112;2023-06-05T19:13:22;4.27;;;2.30;;
313;SDS011;143;51.634;7.112;2023-06-05T19:15:47;7.03;;;2.30;;
313;SDS011;143;51.634;7.112;2023-06-05T19:18:13;7.77;;;3.27;;
313;SDS011;143;51.634;7.112;2023-06-05T19:20:39;4.43;;;2.63;;
313;SDS011;143;51.634;7.112;2023-06-05T19:23:05;5.83;;;2.40;;
313;SDS011;143;51.634;7.112;2023-06-05T19:25:30;3.50;;;2.23;;
313;SDS011;143;51.634;7.112;2023-06-05T19:27:57;6.80;;;2.13;;
313;SDS011;143;51.634;7.112;2023-06-05T19:30:23;4.23;;;2.30;;
313;SDS011;143;51.634;7.112;2023-06-05T19:32:49;3.40;;;2.00;;
313;SDS011;143;51.634;7.112;2023-06-05T19:35:15;7.07;;;2.50;;
313;SDS011;143;51.634;7.112;2023-06-05T19:37:42;5.10;;;2.63;;
313;SDS011;143;51.634;7.112;2023-06-05T19:40:08;4.97;;;2.23;;
313;SDS011;143;51.634;7.112;2023-06-05T19:42:34;4.40;;;2.63;;
313;SDS011;143;51.634;7.112;2023-06-05T19:45:00;4.40;;;2.60;;
313;SDS011;143;51.634;7.112;2023-06-05T19:47:26;7.20;;;2.30;;
313;SDS011;143;51.634;7.112;2023-06-05T19:49:51;5.27;;;2.57;;
313;SDS011;143;51.634;7.112;2023-06-05T19:52:17;3.47;;;2.57;;
313;SDS011;143;51.634;7.112;2023-06-05T19:54:43;6.37;;;2.70;;
313;SDS011;143;51.634;7.112;2023-06-05T19:57:09;5.87;;;2.27;;
313;SDS011;143;51.634;7.112;2023-06-05T19:59:34;3.23;;;2.40;;
313;SDS011;143;51.634;7.112;2023-06-05T20:02:00;3.33;;;2.27;;
313;SDS011;143;51.634;7.112;2023-06-05T20:04:26;6.20;;;2.40;;
313;SDS011;143;51.634;7.112;2023-06-05T20:06:52;4.30;;;2.43;;
313;SDS011;143;51.634;7.112;2023-06-05T20:09:17;3.83;;;2.27;;
313;SDS011;143;51.634;7.112;2023-06-05T20:11:43;4.63;;;2.10;;
313;SDS011;143;51.634;7.112;2023-06-05T20:14:08;8.87;;;2.80;;
313;SDS011;143;51.634;7.112;2023-06-05T20:16:35;8.40;;;2.47;;
313;SDS011;143;51.634;7.112;2023-06-05T20:19:00;2.67;;;2.10;;
313;SDS011;143;51.634;7.112;2023-06-05T20:21:26;4.30;;;2.37;;
313;SDS011;143;51.634;7.112;2023-06-05T20:23:52;3.53;;;2.20;;
313;SDS011;143;51.634;7.112;2023-06-05T20:26:20;7.47;;;3.20;;
313;SDS011;143;51.634;7.112;2023-06-05T20:28:46;8.40;;;2.30;;
313;SDS011;143;51.634;7.112;2023-06-05T20:31:13;5.77;;;2.80;;
313;SDS011;143;51.634;7.112;2023-06-05T20:33:39;4.17;;;2.70;;
313;SDS011;143;51.634;7.112;2023-06-05T20:36:05;5.03;;;2.97;;
313;SDS011;143;51.634;7.112;2023-06-05T20:38:31;8.03;;;2.80;;
313;SDS011;143;51.634;7.112;2023-06-05T20:41:02;4.93;;;2.53;;
313;SDS011;143;51.634;7.112;2023-06-05T20:43:29;5.33;;;2.77;;
313;SDS011;143;51.634;7.112;2023-06-05T20:45:59;9.90;;;2.57;;
313;SDS011;143;51.634;7.112;2023-06-05T20:48:29;6.87;;;3.03;;
313;SDS011;143;51.634;7.112;2023-06-05T20:50:56;6.70;;;2.97;;
313;SDS011;143;51.634;7.112;2023-06-05T20:53:23;6.30;;;3.17;;
313;SDS011;143;51.634;7.112;2023-06-05T20:55:48;4.20;;;3.27;;
313;SDS011;143;51.634;7.112;2023-06-05T20:58:14;12.27;;;4.00;;
313;SDS011;143;51.634;7.112;2023-06-05T21:00:40;6.90;;;2.97;;
313;SDS011;143;51.634;7.112;2023-06-05T21:03:06;10.93;;;3.13;;
313;SDS011;143;51.634;7.112;2023-06-05T21:05:34;7.93;;;3.40;;
313;SDS011;143;51.634;7.112;2023-06-05T21:08:00;7.43;;;3.30;;
313;SDS011;143;51.634;7.112;2023-06-05T21:10:28;13.20;;;3.83;;
313;SDS011;143;51.634;7.112;2023-06-05T21:12:54;4.83;;;3.67;;
313;SDS011;143;51.634;7.112;2023-06-05T21:15:20;12.20;;;3.70;;
313;SDS011;143;51.634;7.112;2023-06-05T21:17:46;6.57;;;3.30;;
313;SDS011;143;51.634;7.112;2023-06-05T21:20:11;7.80;;;3.30;;
313;SDS011;143;51.634;7.112;2023-06-05T21:22:38;7.20;;;4.07;;
313;SDS011;143;51.634;7.112;2023-06-05T21:25:04;6.20;;;3.80;;
313;SDS011;143;51.634;7.112;2023-06-05T21:27:30;6.87;;;3.53;;
313;SDS011;143;51.634;7.112;2023-06-05T21:29:55;6.40;;;3.67;;
313;SDS011;143;51.634;7.112;2023-06-05T21:32:21;8.50;;;3.67;;
313;SDS011;143;51.634;7.112;2023-06-05T21:34:47;9.57;;;3.43;;
313;SDS011;143;51.634;7.112;2023-06-05T21:37:14;6.10;;;3.30;;
313;SDS011;143;51.634;7.112;2023-06-05T21:39:42;8.70;;;4.17;;
313;SDS011;143;51.634;7.112;2023-06-05T21:42:11;5.60;;;3.70;;
313;SDS011;143;51.634;7.112;2023-06-05T21:44:41;13.07;;;4.07;;
313;SDS011;143;51.634;7.112;2023-06-05T21:47:11;7.50;;;3.90;;
313;SDS011;143;51.634;7.112;2023-06-05T21:49:37;12.13;;;4.23;;
313;SDS011;143;51.634;7.112;2023-06-05T21:52:03;12.90;;;4.93;;
313;SDS011;143;51.634;7.112;2023-06-05T21:54:30;6.10;;;3.83;;
313;SDS011;143;51.634;7.112;2023-06-05T21:56:56;8.30;;;4.87;;
313;SDS011;143;51.634;7.112;2023-06-05T21:59:23;8.60;;;4.40;;
313;SDS011;143;51.634;7.112;2023-06-05T22:01:50;9.50;;;4.20;;
313;SDS011;143;51.634;7.112;2023-06-05T22:04:15;13.07;;;4.30;;
313;SDS011;143;51.634;7.112;2023-06-05T22:06:42;7.27;;;3.83;;
313;SDS011;143;51.634;7.112;2023-06-05T22:09:07;7.53;;;4.23;;
313;SDS011;143;51.634;7.112;2023-06-05T22:11:34;6.37;;;4.10;;
313;SDS011;143;51.634;7.112;2023-06-05T22:14:00;7.40;;;4.20;;
313;SDS011;143;51.634;7.112;2023-06-05T22:16:27;7.97;;;3.83;;
313;SDS011;143;51.634;7.112;2023-06-05T22:18:55;12.63;;;4.70;;
313;SDS011;143;51.634;7.112;2023-06-05T22:21:25;8.70;;;5.00;;
313;SDS011;143;51.634;7.112;2023-06-05T22:23:51;11.57;;;4.30;;
313;SDS011;143;51.634;7.112;2023-06-05T22:26:17;9.70;;;4.60;;
313;SDS011;143;51.634;7.112;2023-06-05T22:28:42;7.57;;;4.20;;
313;SDS011;143;51.634;7.112;2023-06-05T22:31:09;7.90;;;4.60;;
313;SDS011;143;51.634;7.112;2023-06-05T22:33:35;8.13;;;4.30;;
313;SDS011;143;51.634;7.112;2023-06-05T22:36:01;8.67;;;4.83;;
313;SDS011;143;51.634;7.112;2023-06-05T22:38:28;8.00;;;4.47;;
313;SDS011;143;51.634;7.112;2023-06-05T22:40:55;8.23;;;4.60;;
313;SDS011;143;51.634;7.112;2023-06-05T22:43:21;6.67;;;4.73;;
313;SDS011;143;51.634;7.112;2023-06-05T22:45:47;12.93;;;5.07;;
313;SDS011;143;51.634;7.112;2023-06-05T22:48:14;5.97;;;3.97;;
313;SDS011;143;51.634;7.112;2023-06-05T22:50:43;10.53;;;4.13;;
313;SDS011;143;51.634;7.112;2023-06-05T22:53:09;8.00;;;4.57;;
313;SDS011;143;51.634;7.112;2023-06-05T22:55:37;9.23;;;4.80;;
313;SDS011;143;51.634;7.112;2023-06-05T22:58:05;10.03;;;4.57;;
313;SDS011;143;51.634;7.112;2023-06-05T23:00:31;9.67;;;4.63;;
313;SDS011;143;51.634;7.112;2023-06-05T23:02:57;7.40;;;4.60;;
313;SDS011;143;51.634;7.112;2023-06-05T23:05:23;9.73;;;4.60;;
313;SDS011;143;51.634;7.112;2023-06-05T23:07:49;8.60;;;4.90;;
313;SDS011;143;51.634;7.112;2023-06-05T23:10:14;9.40;;;5.47;;
313;SDS011;143;51.634;7.112;2023-06-05T23:12:40;7.50;;;4.07;;
313;SDS011;143;51.634;7.112;2023-06-05T23:15:06;8.57;;;4.83;;
313;SDS011;143;51.634;7.112;2023-06-05T23:17:32;8.80;;;4.63;;
313;SDS011;143;51.634;7.112;2023-06-05T23:19:58;9.30;;;4.43;;
313;SDS011;143;51.634;7.112;2023-06-05T23:22:24;9.57;;;5.07;;
313;SDS011;143;51.634;7.112;2023-06-05T23:24:50;8.13;;;5.43;;
313;SDS011;143;51.634;7.112;2023-06-05T23:27:15;6.60;;;4.77;;
313;SDS011;143;51.634;7.112;2023-06-05T23:29:41;5.70;;;4.30;;
313;SDS011;143;51.634;7.112;2023-06-05T23:32:08;7.20;;;5.03;;
313;SDS011;143;51.634;7.112;2023-06-05T23:34:33;7.70;;;5.33;;
313;SDS011;143;51.634;7.112;2023-06-05T23:36:59;8.37;;;4.73;;
313;SDS011;143;51.634;7.112;2023-06-05T23:39:25;8.70;;;3.60;;
313;SDS011;143;51.634;7.112;2023-06-05T23:41:51;11.07;;;4.93;;
313;SDS011;143;51.634;7.112;2023-06-05T23:44:18;8.67;;;5.10;;
313;SDS011;143;51.634;7.112;2023-06-05T23:46:44;11.20;;;4.90;;
313;SDS011;143;51.634;7.112;2023-06-05T23:49:10;9.13;;;4.90;;
313;SDS011;143;51.634;7.112;2023-06-05T23:51:37;9.77;;;4.70;;
313;SDS011;143;51.634;7.112;2023-06-05T23:54:02;9.10;;;5.43;;
313;SDS011;143;51.634;7.112;2023-06-05T23:56:28;8.60;;;5.30;;
313;SDS011;143;51.634;7.112;2023-06-05T23:58:54;11.00;;;5.30;;
